LFMP 301030Z AUTO 12010KT 090V150 9999 FEW032 SCT054 24/16 Q1016 TEMPO 12015G25KT

ElémentsDécodage
LFMP Station météo située sur l'aérodrome de PERPIGNAN Rivesaltes
301030Z émis le 30 du mois à 10h30 UTC
AUTO Bulletin édité par un automate
12010KT vent du 120°, 10 noeuds
090V150 vent de direction variable entre 090° et 150°
9999 visibilité horizontale supérieure à 10 Km
FEW032 nuages rares (1/8 à 2/8) à 3200 pieds
SCT054 nuages épars (3/8 à 4/8) à 5400 pieds
24/16 température 24°C, point de rosée 16°C
 soit une humidité relative de 61%
Q1016 la pression au niveau de la mer (QNH) est de 1016 hPa
TEMPO fluctuation temporaire prévue
12015G25KT vent du 120°, moyenne: 15 noeuds, avec rafales à 25 noeuds